Time;durP1;ratioP1;P1;durP2;ratioP2;P2;SDS_P1;SDS_P2;PMS_P1;PMS_P2;Temp;Humidity;BMP_temperature;BMP_pressure;BME280_temperature;BME280_humidity;BME280_pressure;Samples;Min_cycle;Max_cycle;Signal;HPM_P1;HPM_P2
2021/01/28 00:00:36;;;;;;;8.40;4.03;;;3.00;88.30;;;;;;5016576;28;20038;-76
2021/01/28 00:03:03;;;;;;;7.60;3.80;;;3.00;88.30;;;;;;5016337;28;20472;-76
2021/01/28 00:05:31;;;;;;;8.43;3.83;;;3.00;88.30;;;;;;5016513;28;20101;-78
2021/01/28 00:07:58;;;;;;;6.20;3.45;;;3.00;88.30;;;;;;5016660;28;20025;-77
2021/01/28 00:10:24;;;;;;;7.10;3.90;;;3.00;88.40;;;;;;5016681;28;20030;-78
2021/01/28 00:12:51;;;;;;;7.70;3.85;;;3.00;88.50;;;;;;5016394;28;20025;-79
2021/01/28 00:15:18;;;;;;;6.95;3.63;;;3.00;88.50;;;;;;5015023;28;20030;-77
2021/01/28 00:17:44;;;;;;;6.05;3.38;;;3.00;88.40;;;;;;5016396;28;20034;-77
2021/01/28 00:20:19;;;;;;;7.20;3.55;;;3.00;88.40;;;;;;5016205;28;20072;-75
2021/01/28 00:22:45;;;;;;;5.20;3.53;;;3.00;88.70;;;;;;5016266;28;20033;-72
2021/01/28 00:25:16;;;;;;;8.15;3.90;;;3.00;88.80;;;;;;5015994;28;20030;-74
2021/01/28 00:27:42;;;;;;;7.35;3.83;;;3.00;88.70;;;;;;5016167;28;20030;-74
2021/01/28 00:30:10;;;;;;;6.85;3.47;;;3.00;88.70;;;;;;5015857;28;20382;-75
2021/01/28 00:32:36;;;;;;;4.78;2.70;;;3.10;88.80;;;;;;5015930;28;20501;-77
2021/01/28 00:35:02;;;;;;;5.20;2.50;;;3.10;88.70;;;;;;5014796;28;20070;-72
2021/01/28 00:37:27;;;;;;;4.18;2.50;;;3.10;88.60;;;;;;5015926;28;20037;-72
2021/01/28 00:39:53;;;;;;;4.50;2.15;;;3.10;88.60;;;;;;5015873;28;20022;-72
2021/01/28 00:42:18;;;;;;;3.92;1.50;;;3.10;88.70;;;;;;5018384;28;20018;-77
2021/01/28 00:44:44;;;;;;;2.72;1.55;;;3.10;88.70;;;;;;5020235;28;20363;-77
2021/01/28 00:47:10;;;;;;;2.58;1.73;;;3.10;88.60;;;;;;5021452;28;20042;-77
2021/01/28 00:49:35;;;;;;;2.47;1.58;;;3.10;88.50;;;;;;5019573;28;20034;-77
2021/01/28 00:52:01;;;;;;;3.35;1.70;;;3.10;88.60;;;;;;5020027;28;20030;-72
2021/01/28 00:54:26;;;;;;;3.38;2.25;;;3.10;88.60;;;;;;5021671;28;20037;-74
2021/01/28 00:56:52;;;;;;;3.40;2.13;;;3.10;88.70;;;;;;5016047;28;20048;-78
2021/01/28 00:59:17;;;;;;;3.90;2.05;;;3.10;88.60;;;;;;5017904;28;20018;-78
2021/01/28 01:01:43;;;;;;;5.57;2.33;;;3.10;88.80;;;;;;5020103;28;20084;-72
2021/01/28 01:04:08;;;;;;;2.83;1.80;;;3.00;88.90;;;;;;5017485;28;20056;-73
2021/01/28 01:06:34;;;;;;;4.78;2.40;;;3.00;89.10;;;;;;5019483;28;20033;-73
2021/01/28 01:09:00;;;;;;;4.93;2.10;;;3.00;89.40;;;;;;5022198;28;20026;-73
2021/01/28 01:11:25;;;;;;;4.47;2.17;;;3.00;89.70;;;;;;5017134;28;20459;-74
2021/01/28 01:13:51;;;;;;;3.83;2.05;;;2.90;89.90;;;;;;5019494;28;20034;-72
2021/01/28 01:16:19;;;;;;;4.60;2.65;;;3.00;89.80;;;;;;5015977;28;20364;-73
2021/01/28 01:18:44;;;;;;;3.90;2.00;;;3.00;89.70;;;;;;5015586;28;20033;-72
2021/01/28 01:21:10;;;;;;;4.47;2.33;;;3.00;89.70;;;;;;5015162;28;20022;-78
2021/01/28 01:23:35;;;;;;;4.53;2.60;;;3.00;89.70;;;;;;5015001;28;20053;-77
2021/01/28 01:26:02;;;;;;;3.45;2.13;;;3.10;89.60;;;;;;5014787;28;20029;-76
2021/01/28 01:28:28;;;;;;;3.40;2.05;;;3.10;89.50;;;;;;5014940;28;20022;-77
2021/01/28 01:30:54;;;;;;;3.85;2.05;;;3.10;89.50;;;;;;5013599;28;20391;-75
2021/01/28 01:33:20;;;;;;;5.15;2.10;;;3.10;89.50;;;;;;5014814;28;20022;-73
2021/01/28 01:35:45;;;;;;;3.63;1.98;;;3.20;89.30;;;;;;5014788;28;20485;-78
2021/01/28 01:38:11;;;;;;;2.97;2.00;;;3.20;89.10;;;;;;5014737;28;20029;-78
2021/01/28 01:40:42;;;;;;;3.03;1.63;;;3.20;89.10;;;;;;5014784;28;20057;-73
2021/01/28 01:43:10;;;;;;;3.22;2.00;;;3.10;89.30;;;;;;5014974;28;20026;-76
2021/01/28 01:45:43;;;;;;;4.45;2.38;;;3.20;89.40;;;;;;5014698;28;20022;-75
2021/01/28 01:48:17;;;;;;;4.75;2.55;;;3.10;89.20;;;;;;5014769;28;20431;-78
2021/01/28 01:50:48;;;;;;;4.32;2.35;;;3.10;89.20;;;;;;5014515;28;20030;-77
2021/01/28 01:53:26;;;;;;;3.15;2.08;;;3.20;89.20;;;;;;5013125;28;20480;-76
2021/01/28 01:55:57;;;;;;;2.97;2.10;;;3.20;89.10;;;;;;5014438;28;20054;-76
2021/01/28 01:58:44;;;;;;;5.50;3.05;;;3.20;89.10;;;;;;5014298;28;20029;-78
2021/01/28 02:01:10;;;;;;;7.03;3.80;;;3.20;89.10;;;;;;5014177;28;20441;-76
2021/01/28 02:03:38;;;;;;;6.55;3.63;;;3.20;88.90;;;;;;5014128;28;20054;-78
2021/01/28 02:06:13;;;;;;;5.47;3.08;;;3.20;88.60;;;;;;5014236;28;20049;-77
2021/01/28 02:08:38;;;;;;;;;;;3.30;88.50;;;;;;5014509;28;20030;-75
2021/01/28 02:11:05;;;;;;;;;;;3.30;88.40;;;;;;5014632;28;19921;-78
2021/01/28 02:13:31;;;;;;;4.38;1.98;;;3.20;88.30;;;;;;5013994;28;19909;-77
2021/01/28 02:15:57;;;;;;;4.32;2.58;;;3.20;88.20;;;;;;5013934;28;20042;-78
2021/01/28 02:18:23;;;;;;;3.45;1.90;;;3.20;88.30;;;;;;5013984;28;20037;-77
2021/01/28 02:21:25;;;;;;;3.42;2.00;;;3.20;88.40;;;;;;5013308;28;20022;-75
2021/01/28 02:24:02;;;;;;;2.55;1.67;;;3.30;88.50;;;;;;5013951;28;20033;-74
2021/01/28 02:26:28;;;;;;;2.60;1.77;;;3.20;88.40;;;;;;5012629;28;20040;-73
2021/01/28 02:28:53;;;;;;;3.20;2.00;;;3.10;89.10;;;;;;5013784;28;20026;-77
2021/01/28 02:31:19;;;;;;;1.58;1.08;;;3.10;89.20;;;;;;5013746;28;20084;-76
2021/01/28 02:33:55;;;;;;;1.40;0.80;;;3.10;89.70;;;;;;5013757;28;20104;-79
2021/01/28 02:36:32;;;;;;;1.27;1.10;;;3.20;89.70;;;;;;5013680;28;20049;-78
2021/01/28 02:38:57;;;;;;;2.30;1.25;;;3.20;89.60;;;;;;5013699;28;20482;-77
2021/01/28 02:41:23;;;;;;;2.05;1.17;;;3.20;89.40;;;;;;5013764;28;20037;-74
2021/01/28 02:43:50;;;;;;;1.52;1.05;;;3.20;89.40;;;;;;5013592;28;20018;-75
2021/01/28 02:46:16;;;;;;;2.30;1.58;;;3.20;89.30;;;;;;5013535;28;20383;-76
2021/01/28 02:48:42;;;;;;;2.08;1.67;;;3.20;89.10;;;;;;5013698;28;20034;-73
2021/01/28 02:51:09;;;;;;;2.67;1.77;;;3.20;89.80;;;;;;5013419;28;20021;-73
2021/01/28 02:53:44;;;;;;;3.13;2.35;;;3.20;89.30;;;;;;5013518;28;20025;-74
2021/01/28 02:56:10;;;;;;;3.13;2.33;;;3.30;89.40;;;;;;5013352;28;20026;-77
2021/01/28 02:58:36;;;;;;;3.42;2.20;;;3.30;89.40;;;;;;5013357;28;20291;-78
2021/01/28 03:01:03;;;;;;;4.28;2.70;;;3.30;89.40;;;;;;5013245;28;20026;-77
2021/01/28 03:03:29;;;;;;;3.20;2.17;;;3.30;89.30;;;;;;5013144;28;20121;-73
2021/01/28 03:05:55;;;;;;;3.50;2.50;;;3.30;89.20;;;;;;5013323;28;20483;-77
2021/01/28 03:08:22;;;;;;;3.40;2.65;;;3.40;89.00;;;;;;5013421;28;20073;-77
2021/01/28 03:10:47;;;;;;;6.18;2.80;;;3.40;88.90;;;;;;5013258;28;20026;-77
2021/01/28 03:13:14;;;;;;;3.42;2.53;;;3.40;88.70;;;;;;5013145;28;20026;-78
2021/01/28 03:15:39;;;;;;;3.03;2.08;;;3.40;88.70;;;;;;5013207;28;20056;-77
2021/01/28 03:18:06;;;;;;;2.40;1.90;;;3.40;88.60;;;;;;5013035;28;20073;-76
2021/01/28 03:20:32;;;;;;;4.25;2.30;;;3.40;88.70;;;;;;5013246;28;20032;-78
2021/01/28 03:22:58;;;;;;;4.50;2.97;;;3.40;88.70;;;;;;5013039;28;20022;-78
2021/01/28 03:25:25;;;;;;;3.92;2.47;;;3.40;88.70;;;;;;5013265;28;20025;-77
2021/01/28 03:27:51;;;;;;;3.50;2.35;;;3.40;88.70;;;;;;5013164;28;20071;-77
2021/01/28 03:30:24;;;;;;;4.68;2.90;;;3.40;88.60;;;;;;5013025;28;20041;-77
2021/01/28 03:32:50;;;;;;;6.18;3.65;;;3.40;88.20;;;;;;5015325;28;20033;-77
2021/01/28 03:35:16;;;;;;;6.60;4.05;;;3.40;87.80;;;;;;5016942;28;20021;-77
2021/01/28 03:37:42;;;;;;;6.32;3.47;;;3.40;87.50;;;;;;5016812;28;20090;-79
2021/01/28 03:40:08;;;;;;;6.20;3.90;;;3.40;87.70;;;;;;5016884;28;20497;-77
2021/01/28 03:42:34;;;;;;;6.13;4.07;;;3.40;87.70;;;;;;5016915;28;20025;-79
2021/01/28 03:44:59;;;;;;;8.15;4.60;;;3.40;87.70;;;;;;5015550;28;20101;-79
2021/01/28 03:47:25;;;;;;;6.93;4.30;;;3.40;87.60;;;;;;5016758;28;20084;-78
2021/01/28 03:49:51;;;;;;;5.80;4.03;;;3.50;87.60;;;;;;5016678;28;20041;-78
2021/01/28 03:52:16;;;;;;;6.82;4.40;;;3.50;87.20;;;;;;5016520;28;20036;-79
2021/01/28 03:54:42;;;;;;;6.60;4.20;;;3.50;86.90;;;;;;5016645;28;20026;-78
2021/01/28 03:57:08;;;;;;;6.10;4.00;;;3.60;86.20;;;;;;5016461;28;20065;-79
2021/01/28 03:59:33;;;;;;;7.38;4.10;;;3.50;85.60;;;;;;5016473;28;20042;-79
2021/01/28 04:01:59;;;;;;;6.03;4.13;;;3.60;85.30;;;;;;5016418;28;20073;-77
2021/01/28 04:04:24;;;;;;;5.95;3.58;;;3.60;85.20;;;;;;5016411;28;20038;-77
2021/01/28 04:06:50;;;;;;;6.63;3.72;;;3.60;85.10;;;;;;5016473;28;20054;-77
2021/01/28 04:09:15;;;;;;;5.22;3.60;;;3.60;85.10;;;;;;5016200;28;20026;-77
2021/01/28 04:11:41;;;;;;;5.50;3.67;;;3.60;84.90;;;;;;5016352;28;20072;-77
2021/01/28 04:14:06;;;;;;;5.90;3.83;;;3.70;85.10;;;;;;5016173;28;20092;-78
2021/01/28 04:16:32;;;;;;;5.45;4.05;;;3.70;84.50;;;;;;5016117;28;20172;-78
2021/01/28 04:18:58;;;;;;;6.13;4.13;;;3.60;84.50;;;;;;5014861;28;20029;-78
2021/01/28 04:21:23;;;;;;;4.97;3.58;;;3.70;84.70;;;;;;5016227;28;20026;-78
2021/01/28 04:23:49;;;;;;;6.93;3.88;;;3.70;84.50;;;;;;5016036;28;20387;-79
2021/01/28 04:26:15;;;;;;;5.65;3.78;;;3.70;84.10;;;;;;5016081;28;20030;-78
2021/01/28 04:28:41;;;;;;;7.65;4.47;;;3.70;84.00;;;;;;5016123;28;20018;-77
2021/01/28 04:31:07;;;;;;;6.00;3.83;;;3.70;84.00;;;;;;5015954;28;20049;-76
2021/01/28 04:33:33;;;;;;;5.43;3.63;;;3.70;84.80;;;;;;5015805;28;20022;-77
2021/01/28 04:35:59;;;;;;;5.13;3.20;;;3.70;84.20;;;;;;5015710;28;20108;-79
2021/01/28 04:38:25;;;;;;;4.85;3.47;;;3.70;84.30;;;;;;5015772;28;20538;-78
2021/01/28 04:41:33;;;;;;;4.90;3.53;;;3.70;84.20;;;;;;5015749;28;20198;-77
2021/01/28 04:44:00;;;;;;;4.05;2.72;;;3.70;84.30;;;;;;4993125;28;20237;-75
2021/01/28 04:46:33;;;;;;;5.50;2.72;;;3.70;84.30;;;;;;4993917;28;20133;-78
2021/01/28 04:49:01;;;;;;;3.85;3.00;;;3.70;84.50;;;;;;5005111;28;20364;-77
2021/01/28 04:51:28;;;;;;;4.43;2.75;;;3.70;84.50;;;;;;5015378;28;20036;-76
2021/01/28 04:54:02;;;;;;;3.45;2.25;;;3.70;84.60;;;;;;5015421;28;20030;-77
2021/01/28 04:56:28;;;;;;;5.10;3.03;;;3.80;84.60;;;;;;5015393;28;20029;-78
2021/01/28 04:59:06;;;;;;;4.63;2.95;;;3.90;85.40;;;;;;5015420;28;20018;-78
2021/01/28 05:01:33;;;;;;;3.97;2.55;;;3.90;84.50;;;;;;5015306;28;20025;-76
2021/01/28 05:04:01;;;;;;;4.53;3.10;;;3.90;84.20;;;;;;5014944;28;20046;-76
2021/01/28 05:06:27;;;;;;;3.88;2.67;;;3.90;84.10;;;;;;5015318;28;20022;-76
2021/01/28 05:08:52;;;;;;;6.20;3.30;;;4.00;84.30;;;;;;5015093;28;20030;-75
2021/01/28 05:11:37;;;;;;;5.05;3.30;;;4.00;84.20;;;;;;5015100;28;20030;-77
2021/01/28 05:14:27;;;;;;;3.65;2.08;;;4.00;84.40;;;;;;5015270;28;20026;-75
2021/01/28 05:16:55;;;;;;;2.53;1.95;;;4.00;84.30;;;;;;5015220;28;20037;-74
2021/01/28 05:19:41;;;;;;;2.58;1.77;;;4.10;85.20;;;;;;5015044;28;20108;-75
2021/01/28 05:22:26;;;;;;;3.63;1.98;;;4.10;84.30;;;;;;5014917;28;20470;-76
2021/01/28 05:25:09;;;;;;;3.53;2.22;;;4.10;84.30;;;;;;5013630;28;20049;-76
2021/01/28 05:27:37;;;;;;;3.67;2.03;;;4.10;84.30;;;;;;5014875;28;20097;-77
2021/01/28 05:30:35;;;;;;;2.72;1.60;;;4.20;84.20;;;;;;5014684;28;20048;-77
2021/01/28 05:33:01;;;;;;;2.63;1.73;;;4.20;84.30;;;;;;5014602;28;20085;-74
2021/01/28 05:35:31;;;;;;;4.22;2.63;;;4.30;84.30;;;;;;5014606;28;20110;-76
2021/01/28 05:38:08;;;;;;;4.93;2.83;;;4.20;84.40;;;;;;5014607;28;20494;-76
2021/01/28 05:40:34;;;;;;;5.75;3.45;;;4.20;84.60;;;;;;5014615;28;20033;-73
2021/01/28 05:43:00;;;;;;;3.63;2.28;;;4.30;85.00;;;;;;5014534;28;20030;-74
2021/01/28 05:45:34;;;;;;;3.60;2.65;;;4.30;85.30;;;;;;5014563;28;20101;-74
2021/01/28 05:48:22;;;;;;;3.17;2.00;;;4.30;85.70;;;;;;5014420;28;20021;-73
2021/01/28 05:51:04;;;;;;;2.67;1.92;;;4.30;86.20;;;;;;5014525;28;20026;-74
2021/01/28 05:53:30;;;;;;;2.85;1.50;;;4.20;86.40;;;;;;5014445;28;20125;-74
2021/01/28 05:55:56;;;;;;;2.53;1.90;;;4.20;86.80;;;;;;5013254;28;20522;-73
2021/01/28 05:58:39;;;;;;;1.70;1.15;;;4.20;86.90;;;;;;5014399;28;20041;-73
2021/01/28 06:01:47;;;;;;;2.70;1.73;;;4.30;87.30;;;;;;5012987;28;20026;-74
2021/01/28 06:04:33;;;;;;;2.00;1.50;;;4.40;87.40;;;;;;5014743;28;20430;-73
2021/01/28 06:07:35;;;;;;;1.75;1.15;;;4.40;87.50;;;;;;5014168;28;20030;-73
2021/01/28 06:10:20;;;;;;;2.17;1.30;;;4.50;87.70;;;;;;5012687;28;20041;-74
2021/01/28 06:12:51;;;;;;;3.55;1.30;;;4.60;87.40;;;;;;5013846;28;20022;-74
2021/01/28 06:15:51;;;;;;;2.63;1.30;;;4.60;87.60;;;;;;5013936;28;20033;-74
2021/01/28 06:18:39;;;;;;;1.95;1.27;;;4.60;87.50;;;;;;5013731;28;20038;-74
2021/01/28 06:21:46;;;;;;;1.85;1.00;;;4.60;87.70;;;;;;5013848;28;20084;-74
2021/01/28 06:24:30;;;;;;;5.30;1.60;;;4.60;88.20;;;;;;5010705;28;20057;-74
2021/01/28 06:27:26;;;;;;;3.67;2.08;;;4.60;88.40;;;;;;5013692;28;20022;-73
2021/01/28 06:30:07;;;;;;;1.40;0.95;;;4.60;88.70;;;;;;5013680;28;20035;-75
2021/01/28 06:33:00;;;;;;;0.95;0.77;;;4.60;89.00;;;;;;5013888;28;20026;-74
2021/01/28 06:36:03;;;;;;;2.80;1.38;;;4.60;89.20;;;;;;5012409;28;20418;-73
2021/01/28 06:38:38;;;;;;;1.73;0.80;;;4.60;89.40;;;;;;5013585;28;20160;-74
2021/01/28 06:41:09;;;;;;;2.33;1.48;;;4.60;89.90;;;;;;5013478;28;20018;-73
2021/01/28 06:43:53;;;;;;;1.45;1.02;;;4.60;90.00;;;;;;5013487;28;20041;-73
2021/01/28 06:46:26;;;;;;;0.68;0.50;;;4.60;90.00;;;;;;5013358;28;20044;-72
2021/01/28 06:49:07;;;;;;;3.25;0.50;;;4.60;90.10;;;;;;5013314;28;20026;-73
2021/01/28 06:52:09;;;;;;;0.73;0.70;;;4.60;90.70;;;;;;5013227;28;20032;-73
2021/01/28 06:54:57;;;;;;;2.88;0.80;;;4.60;90.80;;;;;;5012367;28;20025;-72
2021/01/28 06:57:39;;;;;;;1.75;0.90;;;4.70;90.80;;;;;;5013334;28;20386;-73
2021/01/28 07:00:11;;;;;;;1.98;0.50;;;4.80;90.30;;;;;;5013148;28;20105;-73
2021/01/28 07:03:11;;;;;;;0.20;0.10;;;4.90;89.90;;;;;;5013109;28;20050;-75
2021/01/28 07:06:10;;;;;;;0.28;0.20;;;5.00;89.20;;;;;;5013166;28;20018;-75
2021/01/28 07:08:48;;;;;;;0.93;0.38;;;5.10;88.60;;;;;;5012734;28;20029;-74
2021/01/28 07:11:35;;;;;;;0.38;0.30;;;5.20;88.20;;;;;;5013026;28;20026;-74
2021/01/28 07:14:02;;;;;;;0.20;0.20;;;5.20;87.90;;;;;;5012836;28;20033;-74
2021/01/28 07:17:23;;;;;;;0.93;0.32;;;5.20;87.80;;;;;;5012980;28;20029;-72
2021/01/28 07:19:55;;;;;;;0.20;0.20;;;5.20;87.90;;;;;;4971648;28;20404;-72
2021/01/28 07:22:32;;;;;;;0.50;0.30;;;5.20;88.00;;;;;;5005983;28;20441;-73
2021/01/28 07:25:30;;;;;;;0.60;0.20;;;5.20;87.90;;;;;;5012878;28;20522;-73
2021/01/28 07:28:05;;;;;;;0.70;0.40;;;5.20;88.00;;;;;;5012961;28;20084;-74
2021/01/28 07:30:40;;;;;;;1.25;0.70;;;5.30;88.00;;;;;;5012833;28;20473;-75
2021/01/28 07:33:07;;;;;;;6.40;0.50;;;5.60;90.70;;;;;;5012741;28;20027;-77
2021/01/28 07:35:40;;;;;;;1.75;0.60;;;5.90;87.80;;;;;;5012771;28;20458;-77
2021/01/28 07:38:28;;;;;;;0.25;0.10;;;6.10;86.10;;;;;;5012981;28;20124;-75
2021/01/28 07:41:09;;;;;;;0.57;0.28;;;6.20;85.20;;;;;;5016346;28;20483;-75
2021/01/28 07:43:40;;;;;;;0.38;0.30;;;6.30;84.80;;;;;;5018703;28;20052;-76
2021/01/28 07:46:37;;;;;;;0.88;0.20;;;6.50;84.20;;;;;;5016512;28;20086;-76
2021/01/28 07:49:14;;;;;;;;;;;6.40;83.70;;;;;;5012422;28;20121;-75
2021/01/28 07:51:47;;;;;;;0.15;0.13;;;6.60;84.30;;;;;;5012937;28;19956;-75
2021/01/28 07:54:24;;;;;;;0.40;0.30;;;6.60;82.90;;;;;;5012619;28;20521;-76
2021/01/28 07:57:06;;;;;;;3.00;1.00;;;6.70;82.80;;;;;;5012535;28;20060;-76
2021/01/28 07:59:38;;;;;;;0.50;0.40;;;6.60;82.30;;;;;;5012527;28;20022;-76
2021/01/28 08:02:15;;;;;;;0.98;0.20;;;6.50;83.40;;;;;;5012593;28;20041;-74
2021/01/28 08:04:48;;;;;;;0.73;0.28;;;6.50;83.50;;;;;;5012780;28;20053;-78
2021/01/28 08:07:23;;;;;;;1.38;0.50;;;6.50;83.50;;;;;;5012632;28;20418;-75
2021/01/28 08:09:55;;;;;;;2.20;0.45;;;6.50;83.20;;;;;;5012561;28;20025;-76
2021/01/28 08:12:36;;;;;;;1.63;0.30;;;6.40;83.80;;;;;;5012541;28;20544;-77
2021/01/28 08:15:20;;;;;;;1.60;0.35;;;6.40;84.40;;;;;;5012517;28;20026;-77
2021/01/28 08:17:57;;;;;;;1.77;0.22;;;6.30;84.30;;;;;;5046099;28;20095;-74
2021/01/28 08:20:27;;;;;;;0.30;0.30;;;6.00;85.30;;;;;;5035046;28;20052;-74
2021/01/28 08:22:59;;;;;;;1.27;0.20;;;5.90;85.80;;;;;;5035801;28;20064;-74
2021/01/28 08:25:28;;;;;;;0.63;0.17;;;5.80;86.70;;;;;;5035845;28;20025;-74
2021/01/28 08:27:53;;;;;;;0.10;0.10;;;5.90;87.30;;;;;;5035627;28;20573;-74
2021/01/28 08:30:26;;;;;;;0.20;0.10;;;5.80;87.10;;;;;;5035665;28;20061;-74
2021/01/28 08:32:57;;;;;;;0.13;0.10;;;5.80;87.70;;;;;;5035525;28;20044;-74
2021/01/28 08:35:28;;;;;;;1.55;0.40;;;5.80;88.10;;;;;;5035414;28;20048;-74
2021/01/28 08:38:20;;;;;;;0.52;0.30;;;5.80;88.10;;;;;;5035700;28;20033;-74
2021/01/28 08:40:58;;;;;;;1.75;0.17;;;5.70;88.30;;;;;;5035299;28;20522;-74
2021/01/28 08:43:23;;;;;;;2.17;0.28;;;5.80;88.60;;;;;;5035299;28;20526;-73
2021/01/28 08:46:11;;;;;;;0.10;0.10;;;5.80;88.50;;;;;;5035129;28;20115;-75
2021/01/28 08:48:38;;;;;;;1.60;0.30;;;5.90;88.30;;;;;;5050624;28;20044;-79
2021/01/28 08:51:08;;;;;;;0.20;0.20;;;5.90;88.10;;;;;;5035092;28;20029;-74
2021/01/28 08:53:34;;;;;;;1.73;0.20;;;6.00;88.00;;;;;;5034976;28;20435;-73
2021/01/28 08:56:16;;;;;;;0.10;0.10;;;6.00;87.50;;;;;;5033821;28;20034;-72
2021/01/28 08:58:42;;;;;;;0.90;0.10;;;6.10;87.40;;;;;;5033649;28;20452;-73
2021/01/28 09:01:10;;;;;;;0.10;0.10;;;6.10;87.20;;;;;;5034948;28;20076;-72
2021/01/28 09:04:08;;;;;;;0.35;0.10;;;6.10;87.50;;;;;;5033577;28;20049;-73
2021/01/28 09:06:42;;;;;;;1.00;0.35;;;6.10;87.40;;;;;;5035031;28;20032;-72
2021/01/28 09:09:28;;;;;;;0.60;0.15;;;6.10;87.40;;;;;;5034677;28;20116;-73
2021/01/28 09:12:27;;;;;;;0.20;0.10;;;6.10;87.80;;;;;;5034724;28;20065;-73
2021/01/28 09:15:24;;;;;;;0.10;0.10;;;6.10;87.90;;;;;;5034729;28;20075;-74
2021/01/28 09:17:51;;;;;;;0.47;0.25;;;6.10;88.10;;;;;;5034630;28;20441;-73
2021/01/28 09:20:30;;;;;;;3.10;0.25;;;6.10;88.80;;;;;;5034383;28;20022;-73
2021/01/28 09:23:15;;;;;;;0.80;0.30;;;6.10;88.30;;;;;;5034610;28;20084;-73
2021/01/28 09:25:42;;;;;;;0.10;0.10;;;6.10;88.60;;;;;;5034554;28;20026;-73
2021/01/28 09:28:19;;;;;;;0.40;0.28;;;6.20;88.50;;;;;;5034523;28;20490;-73
2021/01/28 09:30:47;;;;;;;0.10;0.10;;;6.20;88.60;;;;;;5034259;28;20061;-73
2021/01/28 09:33:34;;;;;;;0.80;0.40;;;6.30;88.70;;;;;;5049399;28;20123;-73
2021/01/28 09:36:27;;;;;;;1.05;0.20;;;6.40;88.60;;;;;;5034239;28;20045;-73
2021/01/28 09:39:04;;;;;;;0.77;0.77;;;6.40;87.70;;;;;;5034076;28;20091;-73
2021/01/28 09:41:40;;;;;;;0.30;0.20;;;6.50;87.70;;;;;;5032741;28;20108;-75
2021/01/28 09:44:28;;;;;;;0.10;0.10;;;6.60;88.10;;;;;;5033832;28;20022;-74
2021/01/28 09:47:24;;;;;;;0.75;0.30;;;6.70;87.90;;;;;;5028289;28;20108;-73
2021/01/28 09:49:55;;;;;;;0.65;0.15;;;6.70;88.00;;;;;;5032501;28;20363;-73
2021/01/28 09:52:30;;;;;;;0.50;0.10;;;6.70;87.70;;;;;;5033967;28;20029;-73
2021/01/28 09:55:02;;;;;;;0.20;0.10;;;6.80;87.40;;;;;;5049218;28;20481;-72
2021/01/28 09:57:28;;;;;;;0.38;0.30;;;6.80;87.00;;;;;;5033885;28;20029;-73
2021/01/28 09:59:56;;;;;;;0.70;0.68;;;6.80;87.40;;;;;;5033798;28;20083;-74
2021/01/28 10:02:37;;;;;;;1.10;0.50;;;6.80;87.80;;;;;;5033767;28;20064;-74
2021/01/28 10:05:05;;;;;;;0.30;0.20;;;6.80;87.90;;;;;;5033783;28;20029;-74
2021/01/28 10:07:30;;;;;;;0.73;0.30;;;6.90;88.40;;;;;;5033609;28;20041;-73
2021/01/28 10:09:56;;;;;;;0.22;0.10;;;6.90;88.20;;;;;;5033482;28;20095;-73
2021/01/28 10:12:26;;;;;;;2.33;0.40;;;7.00;87.80;;;;;;5049090;28;20043;-74
2021/01/28 10:14:51;;;;;;;0.45;0.30;;;7.10;88.00;;;;;;5033535;28;20101;-73
2021/01/28 10:17:17;;;;;;;0.50;0.28;;;7.10;88.30;;;;;;5033184;28;20578;-72
2021/01/28 10:19:43;;;;;;;0.47;0.20;;;7.20;88.00;;;;;;5033294;28;20029;-73
2021/01/28 10:22:11;;;;;;;1.80;0.40;;;7.20;88.00;;;;;;5033330;28;20091;-73
2021/01/28 10:24:37;;;;;;;0.32;0.32;;;7.30;87.80;;;;;;5033195;28;20017;-73
2021/01/28 10:27:03;;;;;;;0.82;0.10;;;7.30;88.00;;;;;;5033056;28;20375;-73
2021/01/28 10:29:28;;;;;;;0.35;0.28;;;7.40;88.00;;;;;;5033169;28;20029;-74
2021/01/28 10:31:54;;;;;;;0.25;0.20;;;7.40;88.00;;;;;;5033006;28;20030;-73
2021/01/28 10:34:20;;;;;;;1.00;0.30;;;7.50;88.10;;;;;;5033122;28;20030;-73
2021/01/28 10:36:46;;;;;;;0.82;0.25;;;7.60;88.10;;;;;;5032873;28;20112;-74
2021/01/28 10:39:11;;;;;;;0.40;0.20;;;7.60;87.70;;;;;;5033166;28;20040;-74
2021/01/28 10:41:37;;;;;;;1.95;0.40;;;7.60;87.80;;;;;;5032276;28;20087;-73
2021/01/28 10:44:02;;;;;;;1.63;0.35;;;7.70;88.30;;;;;;5012934;28;20108;-73
2021/01/28 10:46:28;;;;;;;0.38;0.30;;;7.60;88.40;;;;;;5011939;28;20059;-73
2021/01/28 10:48:53;;;;;;;0.43;0.20;;;7.70;88.30;;;;;;5013269;28;20021;-73
2021/01/28 10:51:19;;;;;;;0.43;0.20;;;7.80;88.10;;;;;;5013027;28;20038;-74
2021/01/28 10:53:44;;;;;;;0.15;0.15;;;7.80;87.90;;;;;;5013110;28;20110;-73
2021/01/28 10:56:10;;;;;;;0.17;0.10;;;7.90;87.80;;;;;;5011717;28;20029;-73
2021/01/28 10:58:36;;;;;;;0.30;0.30;;;7.90;88.20;;;;;;5011527;28;20049;-73
2021/01/28 11:01:02;;;;;;;0.75;0.20;;;8.00;87.90;;;;;;5012947;28;20029;-73
2021/01/28 11:03:27;;;;;;;0.63;0.30;;;8.10;87.80;;;;;;5011594;28;20129;-73
2021/01/28 11:05:53;;;;;;;1.38;0.98;;;8.10;87.80;;;;;;5012763;28;20033;-73
2021/01/28 11:08:19;;;;;;;1.38;0.22;;;8.20;87.30;;;;;;5012857;28;20036;-73
2021/01/28 11:10:45;;;;;;;0.70;0.40;;;8.30;87.10;;;;;;5012985;28;20028;-73
2021/01/28 11:13:10;;;;;;;0.63;0.50;;;8.30;86.80;;;;;;5012707;28;20026;-74
2021/01/28 11:15:37;;;;;;;0.17;0.17;;;8.40;86.10;;;;;;5012610;28;20490;-75
2021/01/28 11:18:05;;;;;;;0.85;0.10;;;8.40;86.10;;;;;;5011406;28;20041;-73
2021/01/28 11:20:31;;;;;;;0.20;0.20;;;8.40;86.20;;;;;;5012746;28;20022;-73
2021/01/28 11:22:59;;;;;;;0.13;0.13;;;8.40;86.20;;;;;;5012663;28;20037;-74
2021/01/28 11:25:26;;;;;;;0.57;0.10;;;8.50;86.60;;;;;;5011403;28;20022;-76
2021/01/28 11:27:51;;;;;;;0.28;0.20;;;8.50;86.40;;;;;;5012834;28;20021;-73
2021/01/28 11:30:21;;;;;;;0.10;0.00;;;8.50;86.30;;;;;;5012707;28;20018;-72
2021/01/28 11:32:47;;;;;;;0.85;0.10;;;8.60;86.30;;;;;;5012713;28;20030;-72
2021/01/28 11:35:14;;;;;;;0.55;0.10;;;8.70;85.80;;;;;;5012747;28;20037;-74
2021/01/28 11:37:44;;;;;;;0.38;0.10;;;8.80;85.70;;;;;;5012577;28;20069;-73
2021/01/28 11:40:11;;;;;;;0.45;0.30;;;8.90;85.20;;;;;;5011120;28;20031;-74
2021/01/28 11:42:37;;;;;;;0.10;0.00;;;9.10;85.00;;;;;;5011163;28;20439;-76
2021/01/28 11:45:04;;;;;;;0.10;0.10;;;9.10;84.00;;;;;;5011283;28;20113;-74
2021/01/28 11:47:30;;;;;;;0.17;0.10;;;9.20;83.70;;;;;;5011349;28;20026;-74
2021/01/28 11:49:56;;;;;;;0.10;0.10;;;9.30;83.30;;;;;;5012513;28;20018;-73
2021/01/28 11:52:23;;;;;;;0.40;0.08;;;9.20;83.00;;;;;;5011623;28;20034;-74
2021/01/28 11:54:49;;;;;;;0.98;0.10;;;9.30;82.60;;;;;;5016441;28;20018;-73
2021/01/28 11:57:14;;;;;;;0.28;0.10;;;9.40;82.60;;;;;;5016026;28;20022;-73
2021/01/28 11:59:40;;;;;;;0.22;0.10;;;9.40;82.90;;;;;;5015166;28;20029;-74
2021/01/28 12:02:06;;;;;;;0.08;0.08;;;9.40;82.30;;;;;;5015223;28;20260;-74
2021/01/28 12:04:31;;;;;;;0.10;0.10;;;9.50;82.10;;;;;;5016633;28;20030;-76
2021/01/28 12:06:57;;;;;;;0.80;0.20;;;9.60;81.80;;;;;;5017040;28;20095;-74
2021/01/28 12:09:22;;;;;;;0.28;0.10;;;9.80;82.70;;;;;;5016969;28;20030;-76
2021/01/28 12:11:48;;;;;;;0.20;0.10;;;9.90;81.10;;;;;;5015849;28;20025;-73
2021/01/28 12:14:14;;;;;;;0.00;0.00;;;10.00;80.70;;;;;;5017827;28;20054;-75
2021/01/28 12:16:41;;;;;;;0.35;0.10;;;10.10;80.60;;;;;;5016419;28;20421;-74
2021/01/28 12:19:08;;;;;;;1.85;0.10;;;10.40;80.10;;;;;;5016070;28;20026;-72
2021/01/28 12:21:34;;;;;;;0.00;0.00;;;10.10;79.90;;;;;;5014933;28;20030;-72
2021/01/28 12:23:59;;;;;;;0.00;0.00;;;10.10;81.10;;;;;;5021341;28;20032;-73
2021/01/28 12:26:25;;;;;;;0.88;0.43;;;10.30;81.10;;;;;;5027334;28;20029;-74
2021/01/28 12:28:50;;;;;;;0.25;0.10;;;10.40;80.60;;;;;;5032504;28;20450;-74
2021/01/28 12:31:16;;;;;;;0.70;0.10;;;10.30;80.50;;;;;;5036671;28;20037;-75
2021/01/28 12:33:41;;;;;;;0.20;0.10;;;10.20;81.10;;;;;;5035611;28;20029;-74
2021/01/28 12:36:09;;;;;;;0.20;0.10;;;10.40;81.30;;;;;;5036272;28;20030;-73
2021/01/28 12:38:35;;;;;;;0.10;0.10;;;10.70;80.30;;;;;;5035718;28;20037;-74
2021/01/28 12:41:01;;;;;;;0.47;0.20;;;11.40;78.20;;;;;;5035568;28;20021;-73
2021/01/28 12:43:27;;;;;;;0.10;0.10;;;11.20;76.70;;;;;;5035469;28;20064;-74
2021/01/28 12:45:53;;;;;;;0.22;0.10;;;10.80;78.60;;;;;;5035313;28;20052;-76
2021/01/28 12:48:19;;;;;;;0.95;0.10;;;10.40;80.70;;;;;;5035378;28;20389;-75
2021/01/28 12:50:44;;;;;;;0.22;0.10;;;10.20;82.70;;;;;;5035208;28;20083;-75
2021/01/28 12:53:10;;;;;;;0.98;0.10;;;10.10;83.20;;;;;;5033527;28;20022;-75
2021/01/28 12:55:35;;;;;;;0.30;0.20;;;10.10;83.20;;;;;;5035205;28;20171;-75
2021/01/28 12:58:01;;;;;;;0.20;0.10;;;10.00;84.00;;;;;;5033297;28;20044;-74
2021/01/28 13:00:26;;;;;;;0.10;0.00;;;9.80;84.80;;;;;;5034845;28;20052;-74
2021/01/28 13:02:52;;;;;;;0.75;0.20;;;9.80;85.40;;;;;;5034776;28;20100;-73
2021/01/28 13:05:18;;;;;;;0.52;0.10;;;9.70;86.20;;;;;;5034093;28;20041;-73
2021/01/28 13:07:44;;;;;;;1.05;0.30;;;9.70;85.90;;;;;;5033513;28;20061;-74
2021/01/28 13:10:10;;;;;;;0.25;0.10;;;9.80;86.70;;;;;;5034806;28;20052;-73
2021/01/28 13:12:36;;;;;;;0.20;0.20;;;10.10;85.40;;;;;;5034711;28;20037;-73
2021/01/28 13:15:04;;;;;;;0.10;0.10;;;10.00;84.70;;;;;;5034575;28;20025;-73
2021/01/28 13:17:30;;;;;;;0.25;0.10;;;10.00;84.40;;;;;;5034278;28;20076;-73
2021/01/28 13:19:55;;;;;;;0.63;0.35;;;9.90;85.50;;;;;;5034429;28;20049;-73